Time;durP1;ratioP1;P1;durP2;ratioP2;P2;SDS_P1;SDS_P2;PMS_P1;PMS_P2;Temp;Humidity;BMP_temperature;BMP_pressure;BME280_temperature;BME280_humidity;BME280_pressure;Samples;Min_cycle;Max_cycle;Signal;HPM_P1;HPM_P2
2023/01/01 00:00:37;;;;;;;;;;;11.00;99.90;;;10.26;100.00;96011.88;10488459;28;2847;-76
2023/01/01 00:05:40;;;;;;;;;;;11.20;99.90;;;10.30;100.00;96020.22;10482535;28;4406;-74
2023/01/01 00:10:43;;;;;;;;;;;11.30;99.90;;;10.32;100.00;96036.09;10482529;28;2908;-73
2023/01/01 00:15:46;;;;;;;;;;;11.30;99.90;;;10.32;100.00;96062.97;10485373;28;3294;-76
2023/01/01 00:20:48;;;;;;;;;;;11.30;99.90;;;10.45;100.00;96068.63;10486990;28;2898;-73
2023/01/01 00:25:51;;;;;;;;;;;11.40;99.90;;;10.25;100.00;96055.97;10475523;28;2941;-73
2023/01/01 00:30:53;;;;;;;;;;;11.40;99.90;;;10.17;100.00;96061.78;10479466;28;2965;-75
2023/01/01 00:35:56;;;;;;;;;;;11.30;99.90;;;10.15;100.00;96080.06;10480544;28;2858;-72
2023/01/01 00:40:59;;;;;;;;;;;11.20;99.90;;;10.02;100.00;96075.16;10481565;28;2866;-74
2023/01/01 00:46:01;;;;;;;;;;;11.10;99.90;;;10.08;100.00;96078.69;10477716;28;2897;-75
2023/01/01 00:51:04;;;;;;;;;;;11.10;99.90;;;10.12;100.00;96077.91;10484865;28;2861;-74
2023/01/01 00:56:07;;;;;;;;;;;11.10;99.90;;;9.99;100.00;96079.19;10477779;28;2922;-73
2023/01/01 01:01:09;;;;;;;;;;;11.10;99.90;;;10.05;100.00;96088.06;10482235;28;2891;-73
2023/01/01 01:06:12;;;;;;;;;;;11.10;99.90;;;9.96;100.00;96092.34;10483570;28;4406;-74
2023/01/01 01:11:15;;;;;;;;;;;11.00;99.90;;;10.00;100.00;96077.31;10480445;28;2922;-72
2023/01/01 01:16:18;;;;;;;;;;;11.10;99.90;;;10.17;100.00;96094.03;10481987;28;2937;-72
2023/01/01 01:21:20;;;;;;;;;;;11.10;99.90;;;10.12;100.00;96098.59;10482342;28;2954;-73
2023/01/01 01:26:24;;;;;;;;;;;11.20;99.90;;;9.96;100.00;96106.56;10480875;28;2921;-73
2023/01/01 01:31:27;;;;;;;;;;;11.10;99.90;;;9.96;100.00;96109.25;10473074;28;2806;-73
2023/01/01 01:36:29;;;;;;;;;;;11.00;99.90;;;9.74;100.00;96101.38;10487129;28;2929;-73
2023/01/01 01:41:32;;;;;;;;;;;10.90;99.90;;;9.73;100.00;96109.66;10479864;28;2909;-72
2023/01/01 01:46:35;;;;;;;;;;;10.80;99.90;;;9.74;100.00;96106.72;10483728;28;2947;-74
2023/01/01 01:51:37;;;;;;;;;;;10.80;99.90;;;9.68;100.00;96102.41;10481723;28;2902;-74
2023/01/01 01:56:40;;;;;;;;;;;10.80;99.90;;;9.80;100.00;96104.06;10479887;28;2845;-74
2023/01/01 02:01:43;;;;;;;;;;;10.80;99.90;;;9.88;100.00;96095.53;10485448;28;2910;-74
2023/01/01 02:06:46;;;;;;;;;;;10.90;99.90;;;9.86;100.00;96092.28;10486674;28;4430;-73
2023/01/01 02:11:48;;;;;;;;;;;11.00;99.90;;;9.71;100.00;96101.88;10482549;28;2823;-74
2023/01/01 02:16:51;;;;;;;;;;;10.90;99.90;;;9.77;100.00;96089.28;10485548;28;2925;-74
2023/01/01 02:21:54;;;;;;;;;;;11.00;99.90;;;9.65;100.00;96102.91;10489479;28;2901;-75
2023/01/01 02:26:56;;;;;;;;;;;10.80;99.90;;;9.44;100.00;96096.59;10489107;28;2968;-75
2023/01/01 02:31:59;;;;;;;;;;;10.70;99.90;;;9.35;100.00;96091.97;10485154;28;2980;-73
2023/01/01 02:37:02;;;;;;;;;;;10.60;99.90;;;9.37;100.00;96089.84;10492903;28;2902;-72
2023/01/01 02:42:04;;;;;;;;;;;10.50;99.90;;;9.29;100.00;96076.91;10483941;28;2854;-74
2023/01/01 02:47:07;;;;;;;;;;;10.40;99.90;;;9.23;100.00;96077.97;10486133;28;2905;-75
2023/01/01 02:52:10;;;;;;;;;;;10.30;99.90;;;9.27;100.00;96071.78;10482988;28;2837;-78
2023/01/01 02:57:12;;;;;;;;;;;10.30;99.90;;;9.21;100.00;96080.88;10491833;28;2889;-73
2023/01/01 03:02:15;;;;;;;;;;;10.30;99.90;;;9.19;100.00;96088.38;10487127;28;2849;-73
2023/01/01 03:07:18;;;;;;;;;;;10.30;99.90;;;9.17;100.00;96085.97;10488292;28;4417;-73
2023/01/01 03:12:20;;;;;;;;;;;10.30;99.90;;;9.09;100.00;96088.28;10480665;28;2906;-73
2023/01/01 03:17:25;;;;;;;;;;;10.20;99.90;;;9.04;100.00;96091.75;10484542;28;2858;-73
2023/01/01 03:22:27;;;;;;;;;;;10.20;99.90;;;8.90;100.00;96096.72;10480358;28;2948;-72
2023/01/01 03:27:30;;;;;;;;;;;10.10;99.90;;;8.78;100.00;96096.09;10485719;28;3275;-73
2023/01/01 03:37:49;;;;;;;;;;;9.90;99.90;;;8.58;100.00;96102.03;10482189;28;2896;-73
2023/01/01 03:42:52;;;;;;;;;;;9.80;99.90;;;8.48;100.00;96115.34;10482700;28;2898;-73
2023/01/01 03:47:54;;;;;;;;;;;9.70;99.90;;;8.42;100.00;96119.03;10482819;28;2922;-75
2023/01/01 03:52:57;;;;;;;;;;;9.60;99.90;;;8.38;100.00;96120.56;10485382;28;2893;-72
2023/01/01 03:57:59;;;;;;;;;;;9.60;99.90;;;8.34;100.00;96130.97;10487131;28;2902;-73
2023/01/01 04:03:02;;;;;;;;;;;9.50;99.90;;;8.41;100.00;96132.69;10488807;28;2850;-74
2023/01/01 04:08:05;;;;;;;;;;;9.50;99.90;;;8.31;100.00;96130.66;10478552;28;4438;-73
2023/01/01 04:13:07;;;;;;;;;;;9.60;99.90;;;8.29;100.00;96138.13;10477924;28;2925;-76
2023/01/01 04:18:10;;;;;;;;;;;9.60;99.90;;;8.32;100.00;96124.22;10485913;28;2894;-78
2023/01/01 04:23:13;;;;;;;;;;;9.50;99.90;;;8.29;100.00;96127.41;10485455;28;2874;-73
2023/01/01 04:28:15;;;;;;;;;;;9.50;99.90;;;8.23;100.00;96128.41;10482158;28;2929;-72
2023/01/01 04:33:18;;;;;;;;;;;9.40;99.90;;;8.19;100.00;96127.28;10479764;28;2865;-73
2023/01/01 04:38:21;;;;;;;;;;;9.30;99.90;;;8.15;100.00;96134.22;10481605;28;2970;-73
2023/01/01 04:43:23;;;;;;;;;;;9.40;99.90;;;8.13;100.00;96140.59;10479993;28;2863;-73
2023/01/01 04:48:26;;;;;;;;;;;9.30;99.90;;;8.01;100.00;96144.47;10480977;28;2901;-73
2023/01/01 04:53:29;;;;;;;;;;;9.60;99.90;;;8.16;100.00;96143.88;10483974;28;2933;-74
2023/01/01 04:58:31;;;;;;;;;;;9.20;99.90;;;8.11;100.00;96147.28;10483704;28;2953;-73
2023/01/01 05:03:34;;;;;;;;;;;9.20;99.90;;;8.07;100.00;96148.81;10480250;28;2863;-72
2023/01/01 05:08:37;;;;;;;;;;;9.20;99.90;;;8.19;100.00;96148.72;10480290;28;4518;-73
2023/01/01 05:13:40;;;;;;;;;;;9.30;99.90;;;8.27;100.00;96150.94;10483749;28;2869;-73
2023/01/01 05:18:42;;;;;;;;;;;9.30;99.90;;;8.37;100.00;96148.44;10486774;28;2900;-75
2023/01/01 05:23:45;;;;;;;;;;;9.40;99.90;;;8.47;100.00;96153.09;10483089;28;2873;-71
2023/01/01 05:28:47;;;;;;;;;;;9.50;99.90;;;8.41;100.00;96152.25;10482037;28;2906;-72
2023/01/01 05:33:51;;;;;;;;;;;9.50;99.90;;;8.33;100.00;96144.59;10492017;28;2889;-73
2023/01/01 05:38:53;;;;;;;;;;;9.50;99.90;;;8.30;100.00;96153.94;10486918;28;2953;-73
2023/01/01 05:43:56;;;;;;;;;;;9.50;99.90;;;8.46;100.00;96154.97;10478780;28;2946;-72
2023/01/01 05:48:58;;;;;;;;;;;9.60;99.90;;;8.39;100.00;96159.69;10486621;28;2891;-72
2023/01/01 05:54:01;;;;;;;;;;;9.60;99.90;;;8.40;100.00;96164.03;10482155;28;2837;-72
2023/01/01 05:59:04;;;;;;;;;;;9.50;99.90;;;8.39;100.00;96173.91;10484745;28;2866;-73
2023/01/01 06:04:07;;;;;;;;;;;9.60;99.90;;;8.40;100.00;96185.44;10476846;28;2972;-73
2023/01/01 06:09:09;;;;;;;;;;;9.60;99.90;;;8.36;100.00;96184.31;10482705;28;4162;-71
2023/01/01 06:14:12;;;;;;;;;;;9.50;99.90;;;8.30;100.00;96183.41;10480099;28;2980;-73
2023/01/01 06:19:15;;;;;;;;;;;9.50;99.90;;;8.30;100.00;96190.63;10477311;28;2890;-73
2023/01/01 06:24:17;;;;;;;;;;;9.50;99.90;;;8.32;100.00;96196.53;10478353;28;2918;-72
2023/01/01 06:29:20;;;;;;;;;;;9.50;99.90;;;8.38;100.00;96195.59;10463675;28;2853;-72
2023/01/01 06:34:23;;;;;;;;;;;9.50;99.90;;;8.43;100.00;96208.25;10476139;28;2936;-73
2023/01/01 06:39:25;;;;;;;;;;;9.50;99.90;;;8.54;100.00;96186.69;10474482;28;2979;-74
2023/01/01 06:44:28;;;;;;;;;;;9.60;99.90;;;8.60;100.00;96196.41;10476139;28;2866;-72
2023/01/01 06:49:30;;;;;;;;;;;9.60;99.90;;;8.59;100.00;96197.47;10484478;28;2945;-71
2023/01/01 06:54:33;;;;;;;;;;;9.70;99.90;;;8.63;100.00;96211.16;10493597;28;2849;-73
2023/01/01 06:59:36;;;;;;;;;;;9.70;99.90;;;8.48;100.00;96221.69;10488428;28;2922;-74
2023/01/01 07:04:38;;;;;;;;;;;9.70;99.90;;;8.32;100.00;96223.34;10470112;28;2893;-72
2023/01/01 07:09:41;;;;;;;;;;;9.80;99.90;;;8.33;100.00;96230.31;10483110;28;4453;-74
2023/01/01 07:14:44;;;;;;;;;;;9.50;99.90;;;8.28;100.00;96243.66;10491220;28;2935;-73
2023/01/01 07:19:46;;;;;;;;;;;9.50;99.90;;;8.20;100.00;96252.09;10486364;28;2917;-73
2023/01/01 07:24:49;;;;;;;;;;;9.40;99.90;;;8.23;100.00;96248.94;10485586;28;2895;-72
2023/01/01 07:29:51;;;;;;;;;;;9.30;99.90;;;8.19;100.00;96255.81;10480925;28;3012;-72
2023/01/01 07:34:54;;;;;;;;;;;9.30;99.90;;;8.26;100.00;96259.13;10489027;28;2913;-74
2023/01/01 07:39:56;;;;;;;;;;;9.40;99.90;;;8.27;100.00;96252.72;10480507;28;3183;-74
2023/01/01 07:44:59;;;;;;;;;;;9.50;99.90;;;8.42;100.00;96268.25;10487839;28;2918;-75
2023/01/01 07:50:02;;;;;;;;;;;9.50;99.90;;;8.54;100.00;96279.66;10488000;28;3137;-75
2023/01/01 07:55:04;;;;;;;;;;;9.50;99.90;;;8.64;100.00;96267.19;10481632;28;2948;-73
2023/01/01 08:00:07;;;;;;;;;;;9.70;99.90;;;8.80;100.00;96286.16;10479387;28;3270;-74
2023/01/01 08:05:09;;;;;;;;;;;9.70;99.90;;;8.92;100.00;96286.84;10497067;28;3017;-72
2023/01/01 08:10:12;;;;;;;;;;;9.80;99.90;;;9.02;100.00;96292.28;10482790;28;4497;-74
2023/01/01 08:15:15;;;;;;;;;;;9.90;99.90;;;9.14;100.00;96282.25;10483964;28;2896;-74
2023/01/01 08:20:17;;;;;;;;;;;10.10;99.90;;;9.25;100.00;96287.72;10490216;28;2994;-75
2023/01/01 08:25:20;;;;;;;;;;;10.20;99.90;;;9.49;100.00;96289.06;10501324;28;2973;-78
2023/01/01 08:30:22;;;;;;;;;;;10.30;99.90;;;9.67;100.00;96271.75;10476933;28;2905;-75
2023/01/01 08:35:25;;;;;;;;;;;10.50;99.90;;;9.89;100.00;96266.31;10466886;28;3029;-75
2023/01/01 08:40:28;;;;;;;;;;;10.70;99.90;;;10.09;100.00;96274.50;10484315;28;2861;-75
2023/01/01 08:45:30;;;;;;;;;;;10.90;99.90;;;10.19;100.00;96288.03;10457170;28;2835;-73
2023/01/01 08:50:33;;;;;;;;;;;11.10;99.90;;;10.37;100.00;96302.13;10478504;28;2908;-73
2023/01/01 08:55:35;;;;;;;;;;;11.20;99.90;;;10.52;100.00;96300.34;10478609;28;2978;-74
2023/01/01 09:00:38;;;;;;;;;;;11.30;99.90;;;10.49;100.00;96305.41;10482048;28;2859;-73
2023/01/01 09:05:44;;;;;;;;;;;11.40;99.90;;;10.70;100.00;96307.19;10485282;28;4474;-72
2023/01/01 09:10:47;;;;;;;;;;;11.50;99.90;;;10.76;100.00;96303.44;10475020;28;2857;-73
2023/01/01 09:15:49;;;;;;;;;;;11.60;99.90;;;10.88;100.00;96319.38;10485478;28;2919;-74
2023/01/01 09:20:52;;;;;;;;;;;11.70;99.90;;;11.03;100.00;96326.69;10479207;28;2991;-72
2023/01/01 09:26:01;;;;;;;;;;;11.80;99.90;;;11.16;100.00;96325.41;10479572;28;2911;-73
2023/01/01 09:31:05;;;;;;;;;;;11.90;99.90;;;11.13;100.00;96334.78;10475926;28;2824;-73
2023/01/01 09:36:07;;;;;;;;;;;12.00;99.90;;;11.22;100.00;96341.28;10477368;28;3136;-73
2023/01/01 09:41:10;;;;;;;;;;;12.10;99.90;;;11.33;100.00;96329.50;10473423;28;2843;-73
2023/01/01 09:46:13;;;;;;;;;;;12.20;99.90;;;11.54;100.00;96329.56;10485058;28;2981;-73
2023/01/01 09:51:15;;;;;;;;;;;12.20;99.90;;;11.69;100.00;96321.50;10480019;28;2796;-72
2023/01/01 09:56:18;;;;;;;;;;;12.40;99.90;;;11.90;100.00;96320.50;10475213;28;3010;-74
2023/01/01 10:01:21;;;;;;;;;;;12.60;99.90;;;12.08;100.00;96312.94;10470781;28;2902;-75
2023/01/01 10:06:24;;;;;;;;;;;12.70;99.90;;;12.28;100.00;96307.56;10467824;28;7939;-74
2023/01/01 10:11:26;;;;;;;;;;;12.90;99.90;;;12.56;98.58;96297.25;10476272;28;7995;-75
2023/01/01 10:16:29;;;;;;;;;;;13.20;99.90;;;12.73;99.77;96299.66;10476223;28;7920;-75
2023/01/01 10:21:32;;;;;;;;;;;13.40;99.90;;;13.03;100.00;96298.72;10482758;28;8090;-76
2023/01/01 10:26:34;;;;;;;;;;;13.60;99.90;;;13.22;100.00;96291.66;10488790;28;8007;-75
2023/01/01 10:31:37;;;;;;;;;;;13.90;99.90;;;13.47;100.00;96278.00;10486656;28;2875;-76
2023/01/01 10:36:40;;;;;;;;;;;14.20;99.90;;;13.56;98.69;96280.94;10485305;28;8068;-74
2023/01/01 10:41:42;;;;;;;;;;;14.30;99.90;;;13.63;96.51;96272.53;10479426;28;2846;-73
2023/01/01 10:46:45;;;;;;;;;;;14.40;99.90;;;13.62;96.05;96268.22;10484852;28;2957;-74
2023/01/01 10:51:48;;;;;;;;;;;14.40;99.90;;;13.69;92.88;96271.41;10479534;28;7721;-75
2023/01/01 10:56:50;;;;;;;;;;;14.40;99.90;;;13.64;93.75;96266.84;10491239;28;2905;-75
2023/01/01 11:01:53;;;;;;;;;;;14.50;99.90;;;13.81;91.48;96265.66;10466747;28;2870;-74
2023/01/01 11:06:56;;;;;;;;;;;14.50;99.90;;;13.86;91.60;96257.47;10492315;28;2973;-73
2023/01/01 11:11:59;;;;;;;;;;;14.60;99.90;;;13.93;90.65;96258.81;10483322;28;2949;-74
2023/01/01 11:17:09;;;;;;;;;;;14.70;99.90;;;14.01;89.46;96249.28;10485972;28;2974;-76
2023/01/01 11:22:12;;;;;;;;;;;14.80;99.90;;;14.26;87.28;96246.34;10490672;28;2880;-74
2023/01/01 11:27:14;;;;;;;;;;;14.90;99.90;;;14.47;86.50;96233.44;10484410;28;8389;-75
2023/01/01 11:32:17;;;;;;;;;;;15.10;99.90;;;14.66;85.97;96222.69;10482979;28;2928;-75
2023/01/01 11:37:20;;;;;;;;;;;15.40;99.90;;;14.69;86.61;96224.00;10481883;28;2938;-74
2023/01/01 11:42:22;;;;;;;;;;;15.50;99.90;;;14.87;86.06;96218.63;10487910;28;2899;-73
2023/01/01 11:47:25;;;;;;;;;;;15.60;99.90;;;15.02;86.97;96214.94;10483211;28;2952;-74
2023/01/01 11:52:28;;;;;;;;;;;15.80;99.90;;;15.00;89.65;96211.69;10481210;28;2913;-75
2023/01/01 11:57:30;;;;;;;;;;;15.90;99.90;;;15.02;88.47;96203.31;10482492;28;3203;-75
2023/01/01 12:02:33;;;;;;;;;;;15.90;99.90;;;15.12;86.61;96198.53;10482638;28;3175;-75
2023/01/01 12:07:36;;;;;;;;;;;15.90;99.90;;;15.31;85.18;96185.00;10487817;28;3147;-75
2023/01/01 12:12:38;;;;;;;;;;;16.10;99.90;;;15.31;84.82;96184.19;10487733;28;3184;-74
2023/01/01 12:17:41;;;;;;;;;;;16.20;99.90;;;15.30;83.52;96193.41;10486768;28;3300;-77
2023/01/01 12:22:43;;;;;;;;;;;16.20;99.90;;;15.24;83.94;96198.09;10483876;28;3163;-76
2023/01/01 12:27:46;;;;;;;;;;;16.10;99.90;;;15.43;82.38;96194.59;10475749;28;5340;-74
2023/01/01 12:32:49;;;;;;;;;;;16.20;99.90;;;15.33;81.66;96187.41;10459792;28;3401;-75
2023/01/01 12:37:52;;;;;;;;;;;16.20;99.90;;;15.36;83.66;96182.22;10479553;28;3187;-73
2023/01/01 12:42:55;;;;;;;;;;;16.20;99.90;;;15.43;81.17;96171.00;10476994;28;3219;-74
2023/01/01 12:47:57;;;;;;;;;;;16.20;99.90;;;15.31;82.70;96173.34;10478664;28;3201;-76
2023/01/01 12:53:00;;;;;;;;;;;16.20;99.90;;;15.49;81.23;96164.41;10480767;28;3192;-74
2023/01/01 12:58:03;;;;;;;;;;;16.30;99.90;;;15.47;81.26;96163.91;10477555;28;3592;-73
2023/01/01 13:03:06;;;;;;;;;;;16.40;99.90;;;15.43;81.19;96171.00;10454369;28;3150;-76
2023/01/01 13:08:09;;;;;;;;;;;16.30;99.90;;;15.58;80.58;96181.59;10472997;28;3199;-71
2023/01/01 13:13:12;;;;;;;;;;;16.40;99.90;;;15.71;79.01;96181.97;10474803;28;3266;-73
2023/01/01 13:18:14;;;;;;;;;;;16.50;99.90;;;15.91;77.81;96187.09;10480525;28;3153;-71
2023/01/01 13:23:17;;;;;;;;;;;16.80;99.90;;;15.77;79.37;96176.19;10483782;28;3175;-73
2023/01/01 13:28:20;;;;;;;;;;;16.80;99.90;;;15.87;77.78;96175.22;10480804;28;3129;-74
2023/01/01 13:33:30;;;;;;;;;;;16.80;99.90;;;15.67;78.96;96179.06;10477144;28;3227;-74
2023/01/01 13:38:34;;;;;;;;;;;16.70;99.90;;;15.43;79.46;96170.22;10482624;28;3204;-73
2023/01/01 13:43:41;;;;;;;;;;;16.60;99.90;;;15.25;80.31;96171.81;10460149;28;3093;-73
2023/01/01 13:48:45;;;;;;;;;;;16.30;99.90;;;15.22;80.40;96177.84;10446899;28;3227;-73
2023/01/01 13:53:48;;;;;;;;;;;16.20;99.90;;;14.96;81.81;96175.50;10481935;28;3521;-74
2023/01/01 13:58:54;;;;;;;;;;;16.10;99.90;;;14.92;82.85;96176.34;10480162;28;3084;-73
2023/01/01 14:03:59;;;;;;;;;;;16.00;99.90;;;14.86;83.03;96184.53;10491614;28;3191;-75
2023/01/01 14:09:02;;;;;;;;;;;15.90;99.90;;;14.73;84.58;96177.13;10480837;28;3148;-74
2023/01/01 14:14:04;;;;;;;;;;;15.70;99.90;;;14.62;84.35;96183.75;10490139;28;3310;-74
2023/01/01 14:19:07;;;;;;;;;;;15.70;99.90;;;14.62;84.78;96174.84;10495421;28;3140;-74
2023/01/01 14:24:16;;;;;;;;;;;15.60;99.90;;;14.60;85.65;96175.94;10488032;28;3268;-73
2023/01/01 14:29:19;;;;;;;;;;;15.60;99.90;;;14.74;83.22;96177.94;10465098;28;3260;-73
2023/01/01 14:34:22;;;;;;;;;;;15.60;99.90;;;14.80;82.75;96179.47;10475024;28;3187;-74
2023/01/01 14:39:24;;;;;;;;;;;15.60;99.90;;;14.65;83.23;96183.19;10476137;28;3106;-73
2023/01/01 14:44:35;;;;;;;;;;;15.60;99.90;;;14.81;82.36;96175.66;10484190;28;3194;-75
2023/01/01 14:49:38;;;;;;;;;;;15.60;99.90;;;14.50;84.32;96170.63;10476323;28;3713;-76
2023/01/01 14:54:41;;;;;;;;;;;15.60;99.90;;;14.32;87.06;96176.78;10487791;28;3161;-74
2023/01/01 14:59:44;;;;;;;;;;;15.50;99.90;;;14.57;86.87;96179.22;10481911;28;3219;-72
2023/01/01 15:04:48;;;;;;;;;;;15.40;99.90;;;14.35;89.29;96184.31;10479487;28;3234;-73
2023/01/01 15:09:51;;;;;;;;;;;15.50;99.90;;;14.03;93.22;96188.41;10481510;28;3555;-73
2023/01/01 15:14:53;;;;;;;;;;;15.30;99.90;;;13.77;96.72;96192.44;10480852;28;3298;-74
2023/01/01 15:19:56;;;;;;;;;;;15.00;99.90;;;13.55;99.52;96187.50;10485160;28;3209;-74
2023/01/01 15:24:59;;;;;;;;;;;14.80;99.90;;;13.27;100.00;96182.84;10476433;28;3196;-73
2023/01/01 15:30:02;;;;;;;;;;;14.50;99.90;;;12.88;100.00;96184.38;10475409;28;3112;-73
2023/01/01 15:35:11;;;;;;;;;;;14.30;99.90;;;12.67;100.00;96178.28;10481788;28;3151;-73
2023/01/01 15:40:14;;;;;;;;;;;13.90;99.90;;;12.60;100.00;96187.75;10464623;28;3199;-72
2023/01/01 15:45:17;;;;;;;;;;;13.70;99.90;;;12.32;100.00;96187.31;10478900;28;3196;-73
2023/01/01 15:50:19;;;;;;;;;;;13.60;99.90;;;11.99;100.00;96193.31;10491658;28;3147;-74
2023/01/01 15:55:22;;;;;;;;;;;13.40;99.90;;;11.74;100.00;96192.22;10458564;28;3248;-73
2023/01/01 16:00:33;;;;;;;;;;;13.10;99.90;;;11.64;100.00;96192.22;10484852;28;3199;-73
2023/01/01 16:05:35;;;;;;;;;;;12.90;99.90;;;11.51;100.00;96192.75;10477613;28;3172;-72
2023/01/01 16:10:38;;;;;;;;;;;12.80;99.90;;;11.29;100.00;96191.16;10488462;28;3189;-74
2023/01/01 16:15:41;;;;;;;;;;;12.60;99.90;;;11.28;100.00;96196.81;10487777;28;3362;-74
2023/01/01 16:20:51;;;;;;;;;;;12.50;99.90;;;11.21;100.00;96199.75;10486569;28;3413;-72
2023/01/01 16:25:53;;;;;;;;;;;12.50;99.90;;;11.21;100.00;96191.69;10486235;28;3267;-73
2023/01/01 16:30:56;;;;;;;;;;;12.40;99.90;;;11.10;100.00;96188.16;10490020;28;3166;-74
2023/01/01 16:35:59;;;;;;;;;;;12.30;99.90;;;11.23;100.00;96189.53;10480734;28;3200;-74
2023/01/01 16:41:02;;;;;;;;;;;12.30;99.90;;;11.19;100.00;96180.34;10481878;28;3327;-73
2023/01/01 16:46:04;;;;;;;;;;;12.30;99.90;;;11.15;100.00;96179.28;10488299;28;3211;-74
2023/01/01 16:51:14;;;;;;;;;;;12.30;99.90;;;11.26;100.00;96180.94;10482070;28;3250;-72
2023/01/01 16:56:17;;;;;;;;;;;12.30;99.90;;;10.96;100.00;96173.59;10488618;28;3224;-71
2023/01/01 17:01:20;;;;;;;;;;;12.30;99.90;;;10.98;100.00;96173.34;10485981;28;3522;-72
2023/01/01 17:06:23;;;;;;;;;;;12.10;99.90;;;10.91;100.00;96178.16;10492343;28;3145;-74
2023/01/01 17:11:26;;;;;;;;;;;12.10;99.90;;;10.94;100.00;96172.25;10480298;28;3147;-75
2023/01/01 17:16:29;;;;;;;;;;;12.00;99.90;;;10.98;100.00;96176.84;10491636;28;3303;-74
2023/01/01 17:21:40;;;;;;;;;;;12.00;99.90;;;10.93;100.00;96170.63;10474181;28;3179;-74
2023/01/01 17:26:43;;;;;;;;;;;12.00;99.90;;;10.73;100.00;96166.81;10486416;28;3153;-74
2023/01/01 17:31:46;;;;;;;;;;;12.00;99.90;;;10.56;100.00;96171.63;10478061;28;3226;-74
2023/01/01 17:36:49;;;;;;;;;;;11.80;99.90;;;10.49;100.00;96166.47;10483405;28;3219;-74
2023/01/01 17:41:52;;;;;;;;;;;11.70;99.90;;;10.42;100.00;96168.59;10474939;28;3583;-74
2023/01/01 17:46:54;;;;;;;;;;;11.60;99.90;;;10.43;100.00;96164.03;10477189;28;3311;-73
2023/01/01 17:51:57;;;;;;;;;;;11.60;99.90;;;10.42;100.00;96154.34;10482117;28;3246;-73
2023/01/01 17:57:02;;;;;;;;;;;11.50;99.90;;;10.22;100.00;96155.03;10481500;28;3338;-73
2023/01/01 18:02:07;;;;;;;;;;;11.50;99.90;;;10.03;100.00;96154.69;10480905;28;3129;-73
2023/01/01 18:07:10;;;;;;;;;;;11.30;99.90;;;9.94;100.00;96158.94;10482128;28;3179;-73
2023/01/01 18:12:13;;;;;;;;;;;11.20;99.90;;;9.90;100.00;96153.25;10488331;28;3184;-71
2023/01/01 18:17:16;;;;;;;;;;;11.10;99.90;;;9.90;100.00;96141.72;10491264;28;3260;-71
2023/01/01 18:22:18;;;;;;;;;;;11.10;99.90;;;9.82;100.00;96142.22;10474485;28;1447;-74
2023/01/01 18:27:21;;;;;;;;;;;11.10;99.90;;;9.83;100.00;96143.81;10479704;28;1679;-72
2023/01/01 18:32:24;;;;;;;;;;;10.90;99.90;;;9.84;100.00;96148.94;10489663;28;1522;-73
2023/01/01 18:37:27;;;;;;;;;;;10.90;99.90;;;9.74;100.00;96133.59;10481291;28;3247;-71
2023/01/01 18:42:33;;;;;;;;;;;10.90;99.90;;;9.82;100.00;96131.47;10470089;28;3173;-73
2023/01/01 18:47:36;;;;;;;;;;;10.90;99.90;;;9.74;100.00;96133.59;10487249;28;3256;-74
2023/01/01 18:52:39;;;;;;;;;;;10.90;99.90;;;9.68;100.00;96134.63;10495471;28;3231;-74
2023/01/01 18:57:42;;;;;;;;;;;10.90;99.90;;;9.60;100.00;96131.59;10493956;28;3410;-72
2023/01/01 19:02:44;;;;;;;;;;;10.80;99.90;;;9.52;100.00;96127.50;10491547;28;3183;-72
2023/01/01 19:07:47;;;;;;;;;;;10.70;99.90;;;9.48;100.00;96129.91;10489854;28;3232;-74
2023/01/01 19:12:53;;;;;;;;;;;10.60;99.90;;;9.46;100.00;96125.84;10485752;28;3344;-74
2023/01/01 19:17:56;;;;;;;;;;;10.60;99.90;;;9.43;100.00;96119.16;10489257;28;3583;-73
2023/01/01 19:22:58;;;;;;;;;;;10.60;99.90;;;9.51;100.00;96117.03;10486977;28;3187;-74
2023/01/01 19:28:01;;;;;;;;;;;10.60;99.90;;;9.44;100.00;96110.03;10483560;28;3259;-74
2023/01/01 19:33:04;;;;;;;;;;;10.60;99.90;;;9.43;100.00;96104.91;10487444;28;3326;-76
2023/01/01 19:38:06;;;;;;;;;;;10.60;99.90;;;9.40;100.00;96103.53;10488900;28;3473;-74
2023/01/01 19:43:09;;;;;;;;;;;10.50;99.90;;;9.31;100.00;96112.34;10485019;28;3232;-74
2023/01/01 19:48:12;;;;;;;;;;;11.90;99.90;;;9.36;100.00;96096.28;10489179;28;3216;-74
2023/01/01 19:53:14;;;;;;;;;;;10.50;99.90;;;9.43;100.00;96084.25;10485826;28;3197;-74
2023/01/01 19:58:18;;;;;;;;;;;10.50;99.90;;;9.40;100.00;96076.72;10486933;28;3175;-72
2023/01/01 20:03:22;;;;;;;;;;;10.50;99.90;;;9.41;100.00;96074.84;10480678;28;3149;-74
2023/01/01 20:08:45;;;;;;;;;;;10.50;99.90;;;9.42;100.00;96066.56;10480877;28;3287;-74
2023/01/01 20:13:47;;;;;;;;;;;10.50;99.90;;;9.46;100.00;96064.94;10486478;28;3250;-74
2023/01/01 20:18:50;;;;;;;;;;;10.60;99.90;;;9.50;100.00;96081.34;10484317;28;3163;-74
2023/01/01 20:23:53;;;;;;;;;;;10.50;99.90;;;9.44;100.00;96074.34;10487877;28;3255;-74
2023/01/01 20:34:16;;;;;;;;;;;10.50;99.90;;;9.36;100.00;96062.22;10487833;28;3640;-75
2023/01/01 20:39:20;;;;;;;;;;;10.50;99.90;;;9.30;100.00;96059.75;10486228;28;3209;-73
2023/01/01 20:44:22;;;;;;;;;;;10.40;99.90;;;9.08;100.00;96059.84;10478597;28;3251;-76
2023/01/01 20:49:25;;;;;;;;;;;10.30;99.90;;;8.91;100.00;96054.66;10494196;28;3229;-74
2023/01/01 20:54:28;;;;;;;;;;;10.10;99.90;;;8.78;100.00;96055.03;10487161;28;3178;-71
2023/01/01 20:59:31;;;;;;;;;;;10.00;99.90;;;8.58;100.00;96045.75;10485959;28;3186;-75
2023/01/01 21:04:39;;;;;;;;;;;9.90;99.90;;;8.58;100.00;96047.63;10484832;28;3156;-77
2023/01/01 21:09:42;;;;;;;;;;;9.80;99.90;;;8.43;100.00;96053.66;10481595;28;3219;-71
2023/01/01 21:14:45;;;;;;;;;;;9.70;99.90;;;8.24;100.00;96055.03;10482295;28;3112;-72
2023/01/01 21:19:48;;;;;;;;;;;9.60;99.90;;;8.19;100.00;96069.19;10480502;28;3283;-75
2023/01/01 21:24:51;;;;;;;;;;;9.40;99.90;;;8.07;100.00;96069.31;10481416;28;3332;-73
2023/01/01 21:29:58;;;;;;;;;;;9.30;99.90;;;8.01;100.00;96075.66;10481057;28;3183;-73
2023/01/01 21:35:01;;;;;;;;;;;9.40;99.90;;;7.92;100.00;96095.91;10481779;28;3197;-72
2023/01/01 21:40:03;;;;;;;;;;;9.40;99.90;;;7.83;100.00;96092.06;10483094;28;3243;-72
2023/01/01 21:45:07;;;;;;;;;;;9.20;99.90;;;7.77;100.00;96095.72;10482850;28;3223;-75
2023/01/01 21:50:09;;;;;;;;;;;9.00;99.90;;;7.83;100.00;96097.41;10484907;28;3169;-73
2023/01/01 21:55:12;;;;;;;;;;;9.00;99.90;;;7.80;100.00;96098.69;10482528;28;3239;-73
2023/01/01 22:00:15;;;;;;;;;;;9.00;99.90;;;7.89;100.00;96103.63;10479151;28;3132;-73
2023/01/01 22:05:18;;;;;;;;;;;9.00;99.90;;;7.89;100.00;96083.03;10476883;28;3296;-75
2023/01/01 22:10:20;;;;;;;;;;;9.00;99.90;;;7.67;100.00;96079.53;10480358;28;3375;-73
2023/01/01 22:15:23;;;;;;;;;;;9.10;99.90;;;7.62;100.00;96079.44;10480382;28;3001;-74
2023/01/01 22:20:27;;;;;;;;;;;8.80;99.90;;;7.46;100.00;96060.53;10486952;28;3137;-71
2023/01/01 22:25:29;;;;;;;;;;;8.80;99.90;;;7.43;100.00;96066.34;10489004;28;3254;-71
2023/01/01 22:30:32;;;;;;;;;;;8.70;99.90;;;7.38;100.00;96066.31;10477457;28;3224;-72
2023/01/01 22:35:35;;;;;;;;;;;8.50;99.90;;;7.29;100.00;96059.75;10489217;28;3186;-71
2023/01/01 22:40:37;;;;;;;;;;;8.50;99.90;;;7.29;100.00;96049.84;10491274;28;3140;-73
2023/01/01 22:45:40;;;;;;;;;;;8.50;99.90;;;7.22;100.00;96045.75;10479127;28;3230;-73
2023/01/01 22:50:43;;;;;;;;;;;8.40;99.90;;;7.20;100.00;96061.22;10485058;28;3149;-74
2023/01/01 22:55:48;;;;;;;;;;;;;;;7.09;100.00;96070.94;10486731;28;3339;-71
2023/01/01 23:00:51;;;;;;;;;;;8.40;99.90;;;6.91;100.00;96053.28;10481010;28;3267;-72
2023/01/01 23:05:53;;;;;;;;;;;8.20;99.90;;;6.83;100.00;96051.03;10482482;28;3537;-72
2023/01/01 23:10:56;;;;;;;;;;;8.30;99.90;;;6.73;100.00;96050.84;10480221;28;3213;-72
2023/01/01 23:16:01;;;;;;;;;;;8.60;99.90;;;6.66;100.00;96045.66;10485190;28;3338;-73
2023/01/01 23:21:06;;;;;;;;;;;7.90;99.90;;;6.70;100.00;96054.81;10485960;28;3192;-72